Aviation Digital Data Service (ADDS)

Output produced by METARs form (0939 UTC 25 August 2016)
found at http://aviationweather.gov/adds/metars/
 
KMPV 250536Z 2506/2606 VRB04KT P6SM SCT250 
     FM251200 18006KT P6SM SCT200 
     FM251900 21008G18KT P6SM VCSH BKN040 
     FM260100 22007KT P6SM SCT040